Time;durP1;ratioP1;P1;durP2;ratioP2;P2;SDS_P1;SDS_P2;PMS_P1;PMS_P2;Temp;Humidity;BMP_temperature;BMP_pressure;BME280_temperature;BME280_humidity;BME280_pressure;Samples;Min_cycle;Max_cycle;Signal;HPM_P1;HPM_P2
2022/03/23 00:01:52;;;;;;;4.43;4.03;;;17.20;55.40;;;;;;5242068;28;20196;-64
2022/03/23 00:04:45;;;;;;;5.43;4.30;;;17.20;55.40;;;;;;5246334;28;20818;-63
2022/03/23 00:07:37;;;;;;;4.50;4.10;;;17.20;55.40;;;;;;5247575;28;20196;-64
2022/03/23 00:10:30;;;;;;;5.53;4.37;;;17.20;55.30;;;;;;5247475;28;20196;-64
2022/03/23 00:13:22;;;;;;;4.63;3.93;;;17.20;55.40;;;;;;5247256;28;20291;-64
2022/03/23 00:16:15;;;;;;;4.90;4.13;;;17.20;55.40;;;;;;5246727;28;20579;-64
2022/03/23 00:19:08;;;;;;;4.53;4.00;;;17.20;55.40;;;;;;5247366;28;20275;-64
2022/03/23 00:22:00;;;;;;;6.23;4.07;;;17.20;55.40;;;;;;5247336;28;20227;-63
2022/03/23 00:24:56;;;;;;;4.10;3.70;;;17.20;55.30;;;;;;5247176;28;20216;-64
2022/03/23 00:27:48;;;;;;;4.13;3.73;;;17.20;55.40;;;;;;5244112;28;20193;-64
2022/03/23 00:30:40;;;;;;;4.33;3.93;;;17.20;55.30;;;;;;5245224;28;20270;-64
2022/03/23 00:33:32;;;;;;;4.87;3.97;;;17.20;55.30;;;;;;5246651;28;20695;-64
2022/03/23 00:36:26;;;;;;;5.53;3.83;;;17.20;55.30;;;;;;5247167;28;20220;-64
2022/03/23 00:39:20;;;;;;;5.47;4.00;;;17.20;55.30;;;;;;5245567;28;20193;-64
2022/03/23 00:42:12;;;;;;;5.43;3.97;;;17.20;55.30;;;;;;5246787;28;20281;-64
2022/03/23 00:45:06;;;;;;;4.57;4.17;;;17.20;55.30;;;;;;5246986;28;20603;-64
2022/03/23 00:47:58;;;;;;;4.17;3.73;;;17.20;55.30;;;;;;5247304;28;20727;-64
2022/03/23 00:50:50;;;;;;;5.17;4.17;;;17.20;55.30;;;;;;5246635;28;20201;-64
2022/03/23 00:53:44;;;;;;;5.03;3.80;;;17.20;55.40;;;;;;5244541;28;20753;-64
2022/03/23 00:56:37;;;;;;;4.23;3.83;;;17.20;55.30;;;;;;5246855;28;20566;-64
2022/03/23 00:59:29;;;;;;;4.50;4.10;;;17.20;55.30;;;;;;5246168;28;20555;-64
2022/03/23 01:02:21;;;;;;;6.07;4.30;;;17.20;55.20;;;;;;5246066;28;20212;-64
2022/03/23 01:05:14;;;;;;;4.93;3.90;;;17.20;55.20;;;;;;5246014;28;20212;-64
2022/03/23 01:08:06;;;;;;;4.90;4.37;;;17.20;55.30;;;;;;5246384;28;20667;-64
2022/03/23 01:11:00;;;;;;;4.63;3.90;;;17.20;55.20;;;;;;5226253;28;20323;-64
2022/03/23 01:13:52;;;;;;;5.03;4.30;;;17.20;55.20;;;;;;5245308;28;20208;-64
2022/03/23 01:16:44;;;;;;;4.97;4.13;;;17.20;55.30;;;;;;5245810;28;20199;-64
2022/03/23 01:19:36;;;;;;;4.87;4.20;;;17.20;55.20;;;;;;5244811;28;20192;-64
2022/03/23 01:22:28;;;;;;;4.50;3.83;;;17.20;55.10;;;;;;5246303;28;20228;-64
2022/03/23 01:25:21;;;;;;;4.73;4.07;;;17.10;55.20;;;;;;5244484;28;20226;-65
2022/03/23 01:28:15;;;;;;;4.83;3.97;;;17.20;55.20;;;;;;5246390;28;20201;-64
2022/03/23 01:31:08;;;;;;;5.10;4.20;;;17.20;55.20;;;;;;5248824;28;20204;-64
2022/03/23 01:34:00;;;;;;;5.30;3.87;;;17.20;55.20;;;;;;5249190;28;20223;-64
2022/03/23 01:36:52;;;;;;;5.40;4.00;;;17.20;55.30;;;;;;5249752;28;20647;-64
2022/03/23 01:39:44;;;;;;;4.37;3.80;;;17.10;55.20;;;;;;5248740;28;20193;-64
2022/03/23 01:42:37;;;;;;;5.83;3.73;;;17.20;55.20;;;;;;5248587;28;20217;-64
2022/03/23 01:45:30;;;;;;;5.60;3.83;;;17.20;55.20;;;;;;5228894;28;20703;-64
2022/03/23 01:48:22;;;;;;;5.23;4.33;;;17.10;55.10;;;;;;5229602;28;20197;-64
2022/03/23 01:51:16;;;;;;;5.10;3.77;;;17.10;55.10;;;;;;5243124;28;20254;-63
2022/03/23 01:54:08;;;;;;;4.20;3.80;;;17.20;55.10;;;;;;5248216;28;20221;-63
2022/03/23 01:57:01;;;;;;;4.33;3.93;;;17.20;55.10;;;;;;5248399;28;20202;-64
2022/03/23 01:59:53;;;;;;;4.70;4.23;;;17.10;55.10;;;;;;5248385;28;20226;-64
2022/03/23 02:02:47;;;;;;;5.00;4.20;;;17.10;55.10;;;;;;5247804;28;20213;-64
2022/03/23 02:05:39;;;;;;;4.73;4.23;;;17.10;55.10;;;;;;5243610;28;20267;-64
2022/03/23 02:08:31;;;;;;;4.20;3.80;;;17.20;55.10;;;;;;5247636;28;20196;-64
2022/03/23 02:11:23;;;;;;;4.23;3.67;;;17.10;55.00;;;;;;5249620;28;20482;-63
2022/03/23 02:14:16;;;;;;;4.70;4.03;;;17.10;55.10;;;;;;5249756;28;20220;-64
2022/03/23 02:17:09;;;;;;;4.80;3.97;;;17.10;55.10;;;;;;5249681;28;20192;-64
2022/03/23 02:20:02;;;;;;;3.93;3.53;;;17.10;55.10;;;;;;5242641;28;20196;-64
2022/03/23 02:22:55;;;;;;;4.93;4.10;;;17.10;55.10;;;;;;5249020;28;20606;-64
2022/03/23 02:25:50;;;;;;;4.60;4.20;;;17.10;55.00;;;;;;5249538;28;20346;-64
2022/03/23 02:28:44;;;;;;;4.27;3.87;;;17.10;55.00;;;;;;5249848;28;20196;-64
2022/03/23 02:31:37;;;;;;;3.90;3.47;;;17.10;55.00;;;;;;5249182;28;20200;-64
2022/03/23 02:34:29;;;;;;;4.67;3.93;;;17.10;55.00;;;;;;5248790;28;20188;-64
2022/03/23 02:37:22;;;;;;;4.63;4.13;;;17.10;55.00;;;;;;5249149;28;20193;-63
2022/03/23 02:40:15;;;;;;;4.70;4.10;;;17.10;55.00;;;;;;5247918;28;20197;-64
2022/03/23 02:43:07;;;;;;;5.17;4.03;;;17.10;55.00;;;;;;5249100;28;20224;-64
2022/03/23 02:45:59;;;;;;;4.53;3.97;;;17.10;54.90;;;;;;5249264;28;20844;-64
2022/03/23 02:48:52;;;;;;;4.00;3.60;;;17.10;55.00;;;;;;5249077;28;20587;-64
2022/03/23 02:51:44;;;;;;;4.13;3.73;;;17.10;55.00;;;;;;5248843;28;20203;-63
2022/03/23 03:04:33;;;;;;;4.27;3.87;;;17.10;54.90;;;;;;5247690;28;20206;-64
2022/03/23 03:07:25;;;;;;;4.63;4.10;;;17.10;54.90;;;;;;5247632;28;20205;-64
2022/03/23 03:10:18;;;;;;;4.00;3.60;;;17.10;54.90;;;;;;5248083;28;20201;-64
2022/03/23 03:13:12;;;;;;;4.00;3.53;;;17.10;55.00;;;;;;5240063;28;20216;-64
2022/03/23 03:16:05;;;;;;;3.90;3.50;;;17.10;55.00;;;;;;5246736;28;20189;-63
2022/03/23 03:18:57;;;;;;;6.73;4.17;;;17.10;54.90;;;;;;5248080;28;20204;-64
2022/03/23 03:21:49;;;;;;;5.40;4.33;;;17.10;54.90;;;;;;5246020;28;20215;-64
2022/03/23 03:24:41;;;;;;;4.07;3.67;;;17.10;54.90;;;;;;5247780;28;20204;-64
2022/03/23 03:27:35;;;;;;;4.77;3.87;;;17.10;54.80;;;;;;5247057;28;20216;-64
2022/03/23 03:30:28;;;;;;;4.03;3.53;;;17.10;54.80;;;;;;5248023;28;20196;-64
2022/03/23 03:33:20;;;;;;;4.43;4.03;;;17.10;54.90;;;;;;5247165;28;20216;-64
2022/03/23 03:36:13;;;;;;;4.20;3.80;;;17.10;54.80;;;;;;5246933;28;20188;-64
2022/03/23 03:39:05;;;;;;;3.80;3.40;;;17.10;55.30;;;;;;5246947;28;20282;-64
2022/03/23 03:41:57;;;;;;;5.23;3.67;;;17.10;54.80;;;;;;5246504;28;20197;-64
2022/03/23 03:44:50;;;;;;;4.43;4.03;;;17.10;54.80;;;;;;5247517;28;20193;-64
2022/03/23 03:47:44;;;;;;;5.97;4.50;;;17.10;54.80;;;;;;5247253;28;20711;-64
2022/03/23 03:50:36;;;;;;;4.73;4.10;;;17.10;54.80;;;;;;5246301;28;20189;-64
2022/03/23 03:53:28;;;;;;;4.13;3.73;;;17.10;54.80;;;;;;5262114;22;20240;-63
2022/03/23 03:56:20;;;;;;;4.27;3.60;;;17.10;54.80;;;;;;5215382;28;20197;-64
2022/03/23 03:59:13;;;;;;;4.30;3.70;;;17.10;54.80;;;;;;5206054;28;20224;-62
2022/03/23 04:02:06;;;;;;;4.70;3.93;;;17.10;54.80;;;;;;5205732;28;20208;-62
2022/03/23 04:04:59;;;;;;;4.87;4.20;;;17.10;54.80;;;;;;5221154;28;20709;-62
2022/03/23 04:07:51;;;;;;;3.70;3.30;;;17.10;54.80;;;;;;5224168;28;20231;-64
2022/03/23 04:10:43;;;;;;;5.97;4.03;;;17.10;54.80;;;;;;5217965;28;20205;-62
2022/03/23 04:13:35;;;;;;;4.23;3.83;;;17.10;54.80;;;;;;5213216;28;20217;-63
2022/03/23 04:16:27;;;;;;;3.90;3.47;;;17.10;54.80;;;;;;5220758;28;20193;-62
2022/03/23 04:19:19;;;;;;;4.13;3.73;;;17.00;54.70;;;;;;5220236;28;20209;-63
2022/03/23 04:22:13;;;;;;;4.17;3.77;;;17.10;54.80;;;;;;5205801;28;20205;-62
2022/03/23 04:25:07;;;;;;;4.80;4.30;;;17.10;54.80;;;;;;5205744;28;20685;-63
2022/03/23 04:28:00;;;;;;;4.20;3.80;;;17.10;54.80;;;;;;5205396;28;20237;-63
2022/03/23 04:30:52;;;;;;;4.20;3.80;;;17.10;54.80;;;;;;5205236;28;20189;-62
2022/03/23 04:33:44;;;;;;;4.10;3.60;;;17.10;54.80;;;;;;5205378;28;20210;-63
2022/03/23 04:36:36;;;;;;;3.80;3.47;;;17.10;54.80;;;;;;5205473;28;20669;-62
2022/03/23 04:39:29;;;;;;;4.23;3.67;;;17.10;54.80;;;;;;5205315;28;20201;-62
2022/03/23 04:42:21;;;;;;;4.40;4.00;;;17.10;54.80;;;;;;5213088;28;20687;-62
2022/03/23 04:45:15;;;;;;;4.17;3.50;;;17.10;54.80;;;;;;5206741;28;20669;-63
2022/03/23 04:48:07;;;;;;;4.23;3.73;;;17.10;54.70;;;;;;5220522;28;20197;-62
2022/03/23 04:50:59;;;;;;;3.93;3.53;;;17.10;54.80;;;;;;5226601;28;20198;-63
2022/03/23 04:53:51;;;;;;;4.07;3.67;;;17.10;54.60;;;;;;5225240;28;20221;-62
2022/03/23 04:56:45;;;;;;;4.00;3.60;;;17.10;54.60;;;;;;5217107;28;20684;-63
2022/03/23 04:59:37;;;;;;;3.80;3.50;;;17.10;54.50;;;;;;5226205;28;20198;-62
2022/03/23 05:02:29;;;;;;;3.77;3.47;;;17.10;54.60;;;;;;5226368;28;20322;-63
2022/03/23 05:05:21;;;;;;;4.13;3.43;;;17.10;54.50;;;;;;5223862;28;20204;-63
2022/03/23 05:08:13;;;;;;;4.30;3.73;;;17.20;54.50;;;;;;5211894;28;20685;-63
2022/03/23 05:11:05;;;;;;;4.40;4.00;;;17.20;54.50;;;;;;5211701;28;20202;-63
2022/03/23 05:13:59;;;;;;;3.90;3.60;;;17.10;54.40;;;;;;5211705;28;20213;-64
2022/03/23 05:16:51;;;;;;;3.80;3.50;;;17.10;54.50;;;;;;5229378;28;20664;-63
2022/03/23 05:19:44;;;;;;;4.27;3.50;;;17.10;54.40;;;;;;5220835;28;20198;-62
2022/03/23 05:22:37;;;;;;;3.40;3.10;;;17.10;54.50;;;;;;5231418;28;20192;-63
2022/03/23 05:25:30;;;;;;;4.17;3.77;;;17.10;54.50;;;;;;5232348;28;20196;-63
2022/03/23 05:28:22;;;;;;;3.67;3.30;;;17.20;54.50;;;;;;5230094;28;20193;-62
2022/03/23 05:31:15;;;;;;;4.17;3.77;;;17.20;54.50;;;;;;5226676;28;20671;-63
2022/03/23 05:34:07;;;;;;;3.97;3.40;;;17.20;54.50;;;;;;5211341;28;20227;-63
2022/03/23 05:36:59;;;;;;;3.70;3.37;;;17.20;54.50;;;;;;5221663;28;20193;-63
2022/03/23 05:39:51;;;;;;;3.83;3.43;;;17.20;54.50;;;;;;5221302;28;20579;-63
2022/03/23 05:42:44;;;;;;;5.00;3.87;;;17.20;54.50;;;;;;5212562;28;20272;-63
2022/03/23 05:45:36;;;;;;;3.43;3.13;;;17.20;54.40;;;;;;5218281;28;20196;-63
2022/03/23 05:48:30;;;;;;;4.03;3.63;;;17.20;54.50;;;;;;5222959;28;20209;-63
2022/03/23 05:51:23;;;;;;;4.20;3.63;;;17.20;54.50;;;;;;5227987;28;20575;-62
2022/03/23 05:54:16;;;;;;;3.57;3.23;;;17.10;54.50;;;;;;5212507;28;20257;-62
2022/03/23 05:57:08;;;;;;;4.67;3.80;;;17.20;54.40;;;;;;5211619;28;20201;-62
2022/03/23 06:00:00;;;;;;;4.77;3.40;;;17.20;54.50;;;;;;5230695;28;20459;-62
2022/03/23 06:02:52;;;;;;;4.37;3.47;;;17.20;54.50;;;;;;5231728;28;20224;-62
2022/03/23 06:05:46;;;;;;;4.03;3.63;;;17.20;54.40;;;;;;5232687;28;20572;-62
2022/03/23 06:08:38;;;;;;;4.93;3.97;;;17.20;54.30;;;;;;5212302;28;20209;-62
2022/03/23 06:11:30;;;;;;;4.13;3.73;;;17.20;54.20;;;;;;5210893;28;20196;-63
2022/03/23 06:14:22;;;;;;;3.77;3.47;;;17.20;54.20;;;;;;5209597;28;20220;-62
2022/03/23 06:17:14;;;;;;;4.13;3.70;;;17.20;54.30;;;;;;5207948;28;20194;-63
2022/03/23 06:20:08;;;;;;;4.73;4.03;;;17.20;54.30;;;;;;5207890;28;20220;-63
2022/03/23 06:23:02;;;;;;;4.17;3.63;;;17.20;54.30;;;;;;5213177;28;20220;-63
2022/03/23 06:25:55;;;;;;;5.13;4.13;;;17.20;54.50;;;;;;5221744;28;20205;-63
2022/03/23 06:28:47;;;;;;;3.83;3.47;;;17.20;54.30;;;;;;5225751;28;20648;-62
2022/03/23 06:31:39;;;;;;;4.30;3.90;;;17.20;54.40;;;;;;5228137;28;20197;-63
2022/03/23 06:34:31;;;;;;;5.07;3.80;;;17.20;54.50;;;;;;5228300;28;20711;-61
2022/03/23 06:37:24;;;;;;;4.60;4.20;;;17.20;54.40;;;;;;5228569;28;20215;-62
2022/03/23 06:40:18;;;;;;;4.50;3.50;;;17.20;54.40;;;;;;5223837;28;20212;-66
2022/03/23 06:43:11;;;;;;;4.67;3.70;;;17.20;54.20;;;;;;5220182;28;20310;-66
2022/03/23 06:46:04;;;;;;;4.97;3.83;;;17.20;54.30;;;;;;5227807;28;20197;-66
2022/03/23 06:48:56;;;;;;;4.80;3.57;;;17.20;54.40;;;;;;5217935;28;20198;-66
2022/03/23 06:51:49;;;;;;;4.43;3.90;;;17.30;54.50;;;;;;5207784;28;20206;-66
2022/03/23 06:54:41;;;;;;;5.20;3.60;;;17.30;54.50;;;;;;5208839;28;20221;-66
2022/03/23 06:57:34;;;;;;;3.73;3.10;;;17.30;54.60;;;;;;5210839;28;20194;-67
2022/03/23 07:00:26;;;;;;;4.13;3.73;;;17.30;54.60;;;;;;5218242;28;20626;-66
2022/03/23 07:03:18;;;;;;;4.30;3.67;;;17.30;54.50;;;;;;5217233;28;20715;-67
2022/03/23 07:06:10;;;;;;;4.27;3.67;;;17.30;54.50;;;;;;5209723;28;20201;-62
2022/03/23 07:12:13;;;;;;;5.33;3.73;;;17.30;54.10;;;;;;5205891;28;20190;-62
2022/03/23 07:15:07;;;;;;;5.47;4.40;;;17.30;54.00;;;;;;5206544;28;20206;-60
2022/03/23 07:17:59;;;;;;;4.93;3.80;;;17.30;53.90;;;;;;5206646;28;20190;-62
2022/03/23 07:20:51;;;;;;;6.07;4.30;;;17.30;53.80;;;;;;5223957;28;20193;-61
2022/03/23 07:23:43;;;;;;;5.70;4.10;;;17.30;53.70;;;;;;5225966;28;20229;-62
2022/03/23 07:26:35;;;;;;;5.40;4.40;;;17.30;53.90;;;;;;5206717;28;20321;-62
2022/03/23 07:29:27;;;;;;;6.90;4.93;;;17.30;53.90;;;;;;5214075;28;20571;-62
2022/03/23 07:32:21;;;;;;;4.20;3.63;;;17.30;53.90;;;;;;5226268;28;20199;-62
2022/03/23 07:35:13;;;;;;;5.97;4.20;;;17.30;54.20;;;;;;5217499;28;20280;-63
2022/03/23 07:38:05;;;;;;;5.50;4.40;;;17.30;54.40;;;;;;5206344;28;20787;-62
2022/03/23 07:40:58;;;;;;;6.60;4.30;;;17.30;54.20;;;;;;5206386;28;20227;-64
2022/03/23 07:43:50;;;;;;;4.23;3.60;;;17.30;54.20;;;;;;5206042;28;20213;-63
2022/03/23 07:46:42;;;;;;;4.70;4.10;;;17.30;54.40;;;;;;5210812;28;20196;-63
2022/03/23 07:49:36;;;;;;;4.37;3.97;;;17.30;54.40;;;;;;5224939;28;20280;-63
2022/03/23 07:52:28;;;;;;;4.57;4.03;;;17.30;54.50;;;;;;5222383;28;20235;-63
2022/03/23 07:55:20;;;;;;;5.43;4.13;;;17.30;54.50;;;;;;5226590;28;20330;-63
2022/03/23 07:58:12;;;;;;;5.53;4.33;;;17.30;54.60;;;;;;5208074;28;20193;-63
2022/03/23 08:01:04;;;;;;;5.63;3.87;;;17.30;54.60;;;;;;5205505;28;20194;-60
2022/03/23 08:03:56;;;;;;;4.60;3.87;;;17.30;54.70;;;;;;5213636;28;20221;-61
2022/03/23 08:06:50;;;;;;;4.00;3.60;;;17.30;54.70;;;;;;5223776;28;20695;-62
2022/03/23 08:09:42;;;;;;;4.50;4.10;;;17.30;54.90;;;;;;5226895;28;20197;-63
2022/03/23 08:12:34;;;;;;;6.73;4.20;;;17.30;54.90;;;;;;5226588;28;20193;-63
2022/03/23 08:15:29;;;;;;;6.50;4.07;;;17.30;54.90;;;;;;5225027;28;20276;-63
2022/03/23 08:18:21;;;;;;;4.53;3.50;;;17.30;54.90;;;;;;5226575;28;20568;-62
2022/03/23 08:21:13;;;;;;;5.07;3.97;;;17.20;55.00;;;;;;5226371;28;20330;-63
2022/03/23 08:24:07;;;;;;;4.90;3.77;;;17.30;55.10;;;;;;5226264;28;20300;-62
2022/03/23 08:26:59;;;;;;;5.20;4.00;;;17.30;55.10;;;;;;5225912;28;20686;-62
2022/03/23 08:29:52;;;;;;;3.97;3.47;;;17.30;55.10;;;;;;5225852;28;20262;-62
2022/03/23 08:32:44;;;;;;;4.07;3.20;;;17.30;55.70;;;;;;5222018;28;20194;-62
2022/03/23 08:35:37;;;;;;;4.07;3.60;;;17.30;55.20;;;;;;5205170;28;20561;-63
2022/03/23 08:38:29;;;;;;;5.10;3.73;;;17.30;55.20;;;;;;5204512;28;20194;-63
2022/03/23 08:41:22;;;;;;;4.77;3.80;;;17.30;55.30;;;;;;5204908;28;20200;-63
2022/03/23 08:44:14;;;;;;;4.10;3.40;;;17.30;55.30;;;;;;5212181;28;20220;-63
2022/03/23 08:47:08;;;;;;;4.60;3.70;;;17.30;55.40;;;;;;5213872;28;20222;-63
2022/03/23 08:50:00;;;;;;;3.77;3.37;;;17.30;55.40;;;;;;5209040;28;20614;-64
2022/03/23 08:52:53;;;;;;;4.47;3.47;;;17.30;55.40;;;;;;5225904;28;20201;-63
2022/03/23 08:55:45;;;;;;;4.13;3.03;;;17.30;55.50;;;;;;5206872;28;20569;-63
2022/03/23 08:58:39;;;;;;;5.47;3.20;;;17.30;55.60;;;;;;5205138;28;20186;-63
2022/03/23 09:01:31;;;;;;;3.77;3.13;;;17.30;55.50;;;;;;5204885;28;20201;-63
2022/03/23 09:04:24;;;;;;;3.83;3.43;;;17.30;55.60;;;;;;5212798;28;20221;-62
2022/03/23 09:07:16;;;;;;;5.77;3.30;;;17.30;55.60;;;;;;5225014;28;20694;-63
2022/03/23 09:10:10;;;;;;;4.20;2.80;;;17.30;55.60;;;;;;5224974;28;20231;-63
2022/03/23 09:13:02;;;;;;;5.67;3.70;;;17.30;55.60;;;;;;5224458;28;20273;-62
2022/03/23 09:15:56;;;;;;;4.27;3.40;;;17.40;55.70;;;;;;5214777;28;20198;-63
2022/03/23 09:18:49;;;;;;;3.90;3.07;;;17.30;55.70;;;;;;5204862;28;20213;-63
2022/03/23 09:21:41;;;;;;;3.30;2.70;;;17.30;55.70;;;;;;5204918;28;20204;-62
2022/03/23 09:24:33;;;;;;;4.80;3.07;;;17.30;55.80;;;;;;5225796;28;20577;-63
2022/03/23 09:27:25;;;;;;;4.27;3.17;;;17.30;55.80;;;;;;5224120;28;20288;-63
2022/03/23 09:30:19;;;;;;;4.37;2.97;;;17.30;55.90;;;;;;5205259;28;20568;-63
2022/03/23 09:33:12;;;;;;;3.20;2.90;;;17.30;55.90;;;;;;5218446;28;20222;-63
2022/03/23 09:36:05;;;;;;;3.83;3.10;;;17.30;55.90;;;;;;5204099;28;20202;-62
2022/03/23 09:38:57;;;;;;;3.30;2.70;;;17.30;55.90;;;;;;5204646;28;20194;-63
2022/03/23 09:41:50;;;;;;;4.77;3.57;;;17.30;56.00;;;;;;5203783;28;20198;-62
2022/03/23 09:44:43;;;;;;;4.17;3.20;;;17.30;56.00;;;;;;5203975;28;20583;-63
2022/03/23 09:47:37;;;;;;;3.77;3.07;;;17.30;56.00;;;;;;5204027;28;20693;-62
2022/03/23 09:50:32;;;;;;;2.83;2.57;;;17.30;56.10;;;;;;5215319;28;20564;-62
2022/03/23 09:53:25;;;;;;;3.60;2.73;;;17.30;56.10;;;;;;5242318;22;22607;-64
2022/03/23 09:56:17;;;;;;;4.00;3.23;;;17.30;56.20;;;;;;5221509;28;20189;-64
2022/03/23 09:59:09;;;;;;;3.87;3.27;;;17.30;56.20;;;;;;5227471;28;20193;-64
2022/03/23 10:02:35;;;;;;;3.77;2.77;;;17.30;56.20;;;;;;5227491;28;20284;-64
2022/03/23 10:05:59;;;;;;;4.53;3.00;;;17.30;56.30;;;;;;5207397;28;20197;-64
2022/03/23 10:09:17;;;;;;;3.87;2.90;;;17.30;56.40;;;;;;5187630;28;20857;-64
2022/03/23 10:12:47;;;;;;;4.03;2.90;;;17.30;56.40;;;;;;5201153;28;20578;-63
2022/03/23 10:16:35;;;;;;;4.07;2.80;;;17.30;56.40;;;;;;5188791;28;20576;-63
2022/03/23 10:19:27;;;;;;;3.30;2.60;;;17.30;56.40;;;;;;5187416;28;20197;-63
2022/03/23 10:22:20;;;;;;;3.37;2.50;;;17.30;56.40;;;;;;5192934;28;20205;-65
2022/03/23 10:25:13;;;;;;;4.03;2.87;;;17.40;56.50;;;;;;5207139;28;20596;-64
2022/03/23 10:28:13;;;;;;;3.93;2.60;;;17.40;56.50;;;;;;5207124;28;20596;-65
2022/03/23 10:31:17;;;;;;;3.30;2.63;;;17.40;56.50;;;;;;5207230;28;20274;-65
2022/03/23 10:34:09;;;;;;;3.07;2.77;;;17.40;56.50;;;;;;5206910;28;20228;-65
2022/03/23 10:37:01;;;;;;;3.00;2.70;;;17.40;56.50;;;;;;5207629;28;20284;-64
2022/03/23 10:39:56;;;;;;;2.90;2.30;;;17.40;56.40;;;;;;5207745;28;20204;-65
2022/03/23 10:42:51;;;;;;;4.37;2.63;;;17.40;56.50;;;;;;5207059;28;20689;-65
2022/03/23 10:45:43;;;;;;;4.30;3.00;;;17.40;56.40;;;;;;5205612;28;20328;-64
2022/03/23 10:48:35;;;;;;;3.93;2.83;;;17.40;56.40;;;;;;5206658;28;20209;-63
2022/03/23 10:51:28;;;;;;;3.73;2.53;;;17.40;56.50;;;;;;5205919;28;20198;-63
2022/03/23 10:54:23;;;;;;;3.33;2.60;;;17.40;56.50;;;;;;5206777;28;20221;-63
2022/03/23 10:57:16;;;;;;;3.37;2.50;;;17.50;56.60;;;;;;5207111;28;20617;-63
2022/03/23 11:00:10;;;;;;;5.30;3.20;;;17.50;56.50;;;;;;5207470;28;20200;-64
2022/03/23 11:03:04;;;;;;;3.77;2.87;;;17.40;56.40;;;;;;5205786;28;20201;-64
2022/03/23 11:05:56;;;;;;;3.50;2.60;;;17.40;56.40;;;;;;5205859;28;20200;-63
2022/03/23 11:08:48;;;;;;;3.30;2.60;;;17.40;56.40;;;;;;5205473;28;20218;-64
2022/03/23 11:18:20;;;;;;;3.17;2.43;;;17.40;56.60;;;;;;5207363;28;20568;-64
2022/03/23 11:21:12;;;;;;;3.00;2.40;;;17.40;56.60;;;;;;5205782;28;20237;-64
2022/03/23 11:24:05;;;;;;;3.73;2.73;;;17.30;56.60;;;;;;5206678;28;20218;-64
2022/03/23 11:26:57;;;;;;;3.23;2.53;;;17.30;56.60;;;;;;5206360;28;20194;-63
2022/03/23 11:29:51;;;;;;;3.47;2.50;;;17.40;56.70;;;;;;5206081;28;20218;-64
2022/03/23 11:32:45;;;;;;;5.70;2.83;;;17.30;56.60;;;;;;5206406;28;20194;-64
2022/03/23 11:35:40;;;;;;;3.43;2.47;;;17.30;56.70;;;;;;5206789;28;20197;-64
2022/03/23 11:38:34;;;;;;;4.00;2.53;;;17.30;56.60;;;;;;5211934;28;20237;-63
2022/03/23 11:41:26;;;;;;;2.77;2.43;;;17.40;56.70;;;;;;5224768;28;20572;-64
2022/03/23 11:44:21;;;;;;;3.27;2.77;;;17.30;56.60;;;;;;5226590;28;20221;-64
2022/03/23 11:47:25;;;;;;;2.83;2.53;;;17.40;56.70;;;;;;5226505;28;20267;-65
2022/03/23 11:50:27;;;;;;;2.73;2.30;;;17.30;56.70;;;;;;5219101;28;20272;-65
2022/03/23 11:53:27;;;;;;;2.80;2.20;;;17.40;56.80;;;;;;5204517;28;20213;-65
2022/03/23 11:56:24;;;;;;;3.77;2.60;;;17.40;56.90;;;;;;5204637;28;20205;-65
2022/03/23 11:59:22;;;;;;;3.10;2.60;;;17.40;56.80;;;;;;5202712;28;20194;-65
2022/03/23 12:02:17;;;;;;;3.10;2.30;;;17.40;56.90;;;;;;5190429;28;20194;-63
2022/03/23 12:05:36;;;;;;;3.50;2.57;;;17.40;56.90;;;;;;5206570;28;20215;-62
2022/03/23 12:08:49;;;;;;;3.80;2.67;;;17.40;56.80;;;;;;5199798;28;20217;-63
2022/03/23 12:11:51;;;;;;;3.10;2.23;;;17.40;56.90;;;;;;5186423;28;20199;-64
2022/03/23 12:14:43;;;;;;;2.87;2.40;;;17.40;56.90;;;;;;5193737;28;20210;-64
2022/03/23 12:17:36;;;;;;;2.73;2.50;;;17.40;56.90;;;;;;5205335;28;20584;-64
2022/03/23 12:20:29;;;;;;;3.47;2.60;;;17.40;56.90;;;;;;5208897;28;20197;-64
2022/03/23 12:23:35;;;;;;;3.80;2.50;;;17.40;57.00;;;;;;5215980;28;20225;-63
2022/03/23 12:26:33;;;;;;;2.40;2.20;;;17.40;57.00;;;;;;5213390;28;20216;-64
2022/03/23 12:29:29;;;;;;;3.27;2.57;;;17.40;57.00;;;;;;5218402;28;20300;-64
2022/03/23 12:32:21;;;;;;;3.17;2.40;;;17.30;57.00;;;;;;5210202;28;20724;-64
2022/03/23 12:35:13;;;;;;;2.77;2.27;;;17.30;57.00;;;;;;5204106;28;20240;-64
2022/03/23 12:38:18;;;;;;;2.87;2.53;;;17.30;57.00;;;;;;5204031;28;20235;-64
2022/03/23 12:41:11;;;;;;;2.13;1.93;;;17.30;57.10;;;;;;5184060;28;20194;-64
2022/03/23 12:44:11;;;;;;;2.60;2.20;;;17.30;57.10;;;;;;5198484;28;20214;-63
2022/03/23 12:47:08;;;;;;;3.17;2.30;;;17.30;57.10;;;;;;5204931;28;20415;-63
2022/03/23 13:00:09;;;;;;;2.50;2.30;;;17.30;57.30;;;;;;5204879;28;20186;-63
2022/03/23 13:03:37;;;;;;;2.60;2.20;;;17.30;57.30;;;;;;5203588;28;20186;-63
2022/03/23 13:06:37;;;;;;;4.27;2.30;;;17.30;57.40;;;;;;5169707;28;20205;-64
2022/03/23 13:09:29;;;;;;;3.80;2.00;;;17.30;57.40;;;;;;5199991;28;20218;-64
2022/03/23 13:12:26;;;;;;;2.90;2.30;;;17.30;57.40;;;;;;5205223;28;20677;-64
2022/03/23 13:15:21;;;;;;;3.73;1.97;;;17.30;57.40;;;;;;5197306;28;20214;-64
2022/03/23 13:18:13;;;;;;;2.57;2.17;;;17.40;57.40;;;;;;5203890;28;20198;-64
2022/03/23 13:21:10;;;;;;;2.90;2.03;;;17.40;57.40;;;;;;5205179;28;20281;-63
2022/03/23 13:24:05;;;;;;;2.63;2.03;;;17.40;57.30;;;;;;5205171;28;20210;-63
2022/03/23 13:26:58;;;;;;;2.70;2.10;;;17.40;57.40;;;;;;5208677;28;20198;-64
2022/03/23 13:30:00;;;;;;;3.03;2.10;;;17.40;57.30;;;;;;5206327;28;20217;-64
2022/03/23 13:32:59;;;;;;;2.33;1.83;;;17.40;57.30;;;;;;5208035;28;20201;-64
2022/03/23 13:35:51;;;;;;;3.60;2.27;;;17.40;57.30;;;;;;5207658;28;20190;-64
2022/03/23 13:38:45;;;;;;;2.47;1.97;;;17.40;57.30;;;;;;5207824;28;20194;-64
2022/03/23 13:44:59;;;;;;;3.57;2.50;;;17.40;57.30;;;;;;5208058;28;20202;-64
2022/03/23 13:47:52;;;;;;;2.03;1.70;;;17.40;57.30;;;;;;5208001;28;20665;-64
2022/03/23 13:50:45;;;;;;;2.73;2.30;;;17.40;57.30;;;;;;5198496;28;20192;-64
2022/03/23 13:53:37;;;;;;;2.37;1.73;;;17.40;57.30;;;;;;5208305;28;20743;-64
2022/03/23 13:56:32;;;;;;;4.53;2.00;;;17.40;57.40;;;;;;5208726;28;20568;-67
2022/03/23 13:59:24;;;;;;;4.60;1.90;;;17.40;57.50;;;;;;5205551;28;20740;-64
2022/03/23 14:02:17;;;;;;;2.70;2.03;;;17.40;57.40;;;;;;5208513;28;20190;-64
2022/03/23 14:05:10;;;;;;;2.07;1.87;;;17.40;57.30;;;;;;5208312;28;20217;-64
2022/03/23 14:08:04;;;;;;;2.17;1.93;;;17.40;57.40;;;;;;5207165;28;20201;-64
2022/03/23 14:10:58;;;;;;;2.47;1.80;;;17.40;57.40;;;;;;5207356;28;20201;-64
2022/03/23 14:13:52;;;;;;;3.20;2.30;;;17.40;57.50;;;;;;5206127;28;20213;-63
2022/03/23 14:17:01;;;;;;;2.50;1.80;;;17.40;57.50;;;;;;5209759;28;20201;-64
2022/03/23 14:19:56;;;;;;;3.60;2.10;;;17.40;57.50;;;;;;5229261;28;20197;-64
2022/03/23 14:22:52;;;;;;;2.42;2.05;;;17.40;57.40;;;;;;5226678;28;20427;-65
2022/03/23 14:25:45;;;;;;;2.57;2.00;;;17.40;57.30;;;;;;5187554;28;20321;-65
2022/03/23 14:28:46;;;;;;;3.27;2.10;;;17.50;57.30;;;;;;5198137;28;20217;-65
2022/03/23 14:31:43;;;;;;;3.03;1.90;;;17.50;57.30;;;;;;5203109;28;20209;-65
2022/03/23 14:34:37;;;;;;;2.37;2.17;;;17.40;57.20;;;;;;5206045;28;20209;-65
2022/03/23 14:37:34;;;;;;;3.77;2.27;;;17.40;57.10;;;;;;5205107;28;20201;-65
2022/03/23 14:40:31;;;;;;;2.50;2.30;;;17.50;57.10;;;;;;5205222;28;20808;-63
2022/03/23 14:43:33;;;;;;;2.93;2.13;;;17.50;57.00;;;;;;5207503;28;20712;-64
2022/03/23 14:46:27;;;;;;;2.77;2.10;;;17.50;57.00;;;;;;5205495;28;20205;-64
2022/03/23 14:49:26;;;;;;;3.90;2.37;;;17.50;56.90;;;;;;5207035;28;20677;-64
2022/03/23 14:52:18;;;;;;;2.30;1.90;;;17.50;56.90;;;;;;5186735;28;20241;-64
2022/03/23 14:55:10;;;;;;;2.77;2.10;;;17.50;56.80;;;;;;5200357;28;20221;-64
2022/03/23 14:58:04;;;;;;;3.20;2.50;;;17.50;56.70;;;;;;5208147;28;20193;-64
2022/03/23 15:00:58;;;;;;;3.30;2.27;;;17.40;56.70;;;;;;5207439;28;20277;-64
2022/03/23 15:03:51;;;;;;;3.63;2.43;;;17.40;56.70;;;;;;5206381;28;20631;-64
2022/03/23 15:13:18;;;;;;;2.67;1.97;;;17.40;56.80;;;;;;5205450;28;20178;-64
2022/03/23 15:16:10;;;;;;;4.87;2.50;;;17.40;56.80;;;;;;5206906;28;20285;-64
2022/03/23 15:19:02;;;;;;;2.93;2.37;;;17.50;56.90;;;;;;5205935;28;20205;-64
2022/03/23 15:21:55;;;;;;;4.60;2.27;;;17.40;56.90;;;;;;5205915;28;20208;-63
2022/03/23 15:24:47;;;;;;;2.60;2.40;;;17.50;56.90;;;;;;5206197;28;20214;-63
2022/03/23 15:27:39;;;;;;;4.17;2.23;;;17.40;56.90;;;;;;5206594;28;20608;-64
2022/03/23 15:30:34;;;;;;;2.93;2.30;;;17.50;57.00;;;;;;5206319;28;20403;-64
2022/03/23 15:33:26;;;;;;;2.93;2.30;;;17.50;57.10;;;;;;5206156;28;20269;-64
2022/03/23 15:36:18;;;;;;;3.67;2.03;;;17.50;57.00;;;;;;5205771;28;20276;-64
2022/03/23 15:39:11;;;;;;;3.43;2.17;;;17.50;57.10;;;;;;5192850;28;20244;-64
2022/03/23 15:42:03;;;;;;;3.30;2.50;;;17.50;57.00;;;;;;5204860;28;20276;-64
2022/03/23 15:44:55;;;;;;;2.67;2.20;;;17.50;57.00;;;;;;5205522;28;20217;-64
2022/03/23 15:47:49;;;;;;;3.13;2.17;;;17.40;57.00;;;;;;5205880;28;20190;-64